sensor_id;sensor_type;location;lat;lon;timestamp;temperature;humidity
60723;DHT22;46574;52.818;6.516;2023-04-24T00:00:55;11.10;99.90
60723;DHT22;46574;52.818;6.516;2023-04-24T00:03:26;11.00;99.90
60723;DHT22;46574;52.818;6.516;2023-04-24T00:05:54;11.00;99.90
60723;DHT22;46574;52.818;6.516;2023-04-24T00:08:20;11.00;99.90
60723;DHT22;46574;52.818;6.516;2023-04-24T00:10:46;11.00;99.90
60723;DHT22;46574;52.818;6.516;2023-04-24T00:13:12;11.00;99.90
60723;DHT22;46574;52.818;6.516;2023-04-24T00:15:38;11.00;99.90
60723;DHT22;46574;52.818;6.516;2023-04-24T00:18:03;10.90;99.90
60723;DHT22;46574;52.818;6.516;2023-04-24T00:20:29;10.90;99.90
60723;DHT22;46574;52.818;6.516;2023-04-24T00:22:55;11.00;99.90
60723;DHT22;46574;52.818;6.516;2023-04-24T00:25:21;11.00;99.90
60723;DHT22;46574;52.818;6.516;2023-04-24T00:27:47;11.00;99.90
60723;DHT22;46574;52.818;6.516;2023-04-24T00:30:13;10.90;99.90
60723;DHT22;46574;52.818;6.516;2023-04-24T00:32:38;10.90;99.90
60723;DHT22;46574;52.818;6.516;2023-04-24T00:35:05;10.90;99.90
60723;DHT22;46574;52.818;6.516;2023-04-24T00:37:31;10.90;99.90
60723;DHT22;46574;52.818;6.516;2023-04-24T00:39:57;10.90;99.90
60723;DHT22;46574;52.818;6.516;2023-04-24T00:42:23;10.90;99.90
60723;DHT22;46574;52.818;6.516;2023-04-24T00:44:49;10.90;99.90
60723;DHT22;46574;52.818;6.516;2023-04-24T00:47:15;10.90;99.90
60723;DHT22;46574;52.818;6.516;2023-04-24T00:49:41;10.90;99.90
60723;DHT22;46574;52.818;6.516;2023-04-24T00:52:06;10.80;99.90
60723;DHT22;46574;52.818;6.516;2023-04-24T00:54:34;10.80;99.90
60723;DHT22;46574;52.818;6.516;2023-04-24T00:57:02;10.80;99.90
60723;DHT22;46574;52.818;6.516;2023-04-24T00:59:27;10.80;99.90
60723;DHT22;46574;52.818;6.516;2023-04-24T01:01:53;10.80;99.90
60723;DHT22;46574;52.818;6.516;2023-04-24T01:04:20;10.90;99.90
60723;DHT22;46574;52.818;6.516;2023-04-24T01:06:46;10.80;99.90
60723;DHT22;46574;52.818;6.516;2023-04-24T01:09:12;10.90;99.90
60723;DHT22;46574;52.818;6.516;2023-04-24T01:11:41;10.90;99.90
60723;DHT22;46574;52.818;6.516;2023-04-24T01:14:08;10.80;99.90
60723;DHT22;46574;52.818;6.516;2023-04-24T01:16:34;10.90;99.90
60723;DHT22;46574;52.818;6.516;2023-04-24T01:19:00;10.90;99.90
60723;DHT22;46574;52.818;6.516;2023-04-24T01:21:26;10.90;99.90
60723;DHT22;46574;52.818;6.516;2023-04-24T01:23:55;10.90;99.90
60723;DHT22;46574;52.818;6.516;2023-04-24T01:26:23;10.90;99.90
60723;DHT22;46574;52.818;6.516;2023-04-24T01:28:48;10.90;99.90
60723;DHT22;46574;52.818;6.516;2023-04-24T01:31:15;10.90;99.90
60723;DHT22;46574;52.818;6.516;2023-04-24T01:33:42;10.90;99.90
60723;DHT22;46574;52.818;6.516;2023-04-24T01:36:10;10.90;99.90
60723;DHT22;46574;52.818;6.516;2023-04-24T01:38:36;10.90;99.90
60723;DHT22;46574;52.818;6.516;2023-04-24T01:41:02;10.80;99.90
60723;DHT22;46574;52.818;6.516;2023-04-24T01:43:28;10.80;99.90
60723;DHT22;46574;52.818;6.516;2023-04-24T01:45:54;10.80;99.90
60723;DHT22;46574;52.818;6.516;2023-04-24T01:48:19;10.70;99.90
60723;DHT22;46574;52.818;6.516;2023-04-24T01:50:45;10.70;99.90
60723;DHT22;46574;52.818;6.516;2023-04-24T01:53:11;10.60;99.90
60723;DHT22;46574;52.818;6.516;2023-04-24T01:55:37;10.60;99.90
60723;DHT22;46574;52.818;6.516;2023-04-24T01:58:03;10.50;99.90
60723;DHT22;46574;52.818;6.516;2023-04-24T02:00:29;10.50;99.90
60723;DHT22;46574;52.818;6.516;2023-04-24T02:02:54;10.50;99.90
60723;DHT22;46574;52.818;6.516;2023-04-24T02:05:20;10.50;99.90
60723;DHT22;46574;52.818;6.516;2023-04-24T02:07:46;10.50;99.90
60723;DHT22;46574;52.818;6.516;2023-04-24T02:10:11;10.40;99.90
60723;DHT22;46574;52.818;6.516;2023-04-24T02:12:37;10.50;99.90
60723;DHT22;46574;52.818;6.516;2023-04-24T02:15:03;10.40;99.90
60723;DHT22;46574;52.818;6.516;2023-04-24T02:17:30;10.40;99.90
60723;DHT22;46574;52.818;6.516;2023-04-24T02:19:56;10.40;99.90
60723;DHT22;46574;52.818;6.516;2023-04-24T02:22:22;10.40;99.90
60723;DHT22;46574;52.818;6.516;2023-04-24T02:24:48;10.40;99.90
60723;DHT22;46574;52.818;6.516;2023-04-24T02:27:13;10.40;99.90
60723;DHT22;46574;52.818;6.516;2023-04-24T02:29:40;10.40;99.90
60723;DHT22;46574;52.818;6.516;2023-04-24T02:32:05;10.40;99.90
60723;DHT22;46574;52.818;6.516;2023-04-24T02:34:31;10.40;99.90
60723;DHT22;46574;52.818;6.516;2023-04-24T02:36:57;10.40;99.90
60723;DHT22;46574;52.818;6.516;2023-04-24T02:39:22;10.40;99.90
60723;DHT22;46574;52.818;6.516;2023-04-24T02:41:48;10.40;99.90
60723;DHT22;46574;52.818;6.516;2023-04-24T02:44:14;10.40;99.90
60723;DHT22;46574;52.818;6.516;2023-04-24T02:46:40;10.40;99.90
60723;DHT22;46574;52.818;6.516;2023-04-24T02:49:07;10.40;99.90
60723;DHT22;46574;52.818;6.516;2023-04-24T02:51:33;10.30;99.90
60723;DHT22;46574;52.818;6.516;2023-04-24T02:53:58;10.30;99.90
60723;DHT22;46574;52.818;6.516;2023-04-24T02:56:24;10.30;99.90
60723;DHT22;46574;52.818;6.516;2023-04-24T02:58:50;10.30;99.90
60723;DHT22;46574;52.818;6.516;2023-04-24T03:01:15;10.30;99.90
60723;DHT22;46574;52.818;6.516;2023-04-24T03:03:41;10.30;99.90
60723;DHT22;46574;52.818;6.516;2023-04-24T03:06:07;10.20;99.90
60723;DHT22;46574;52.818;6.516;2023-04-24T03:08:33;10.20;99.90
60723;DHT22;46574;52.818;6.516;2023-04-24T03:10:59;10.30;99.90
60723;DHT22;46574;52.818;6.516;2023-04-24T03:13:25;10.20;99.90
60723;DHT22;46574;52.818;6.516;2023-04-24T03:15:50;10.30;99.90
60723;DHT22;46574;52.818;6.516;2023-04-24T03:18:16;10.30;99.90
60723;DHT22;46574;52.818;6.516;2023-04-24T03:20:42;10.30;99.90
60723;DHT22;46574;52.818;6.516;2023-04-24T03:23:08;10.30;99.90
60723;DHT22;46574;52.818;6.516;2023-04-24T03:25:33;10.30;99.90
60723;DHT22;46574;52.818;6.516;2023-04-24T03:27:59;10.20;99.90
60723;DHT22;46574;52.818;6.516;2023-04-24T03:30:24;10.30;99.90
60723;DHT22;46574;52.818;6.516;2023-04-24T03:32:50;10.30;99.90
60723;DHT22;46574;52.818;6.516;2023-04-24T03:35:16;10.30;99.90
60723;DHT22;46574;52.818;6.516;2023-04-24T03:37:41;10.30;99.90
60723;DHT22;46574;52.818;6.516;2023-04-24T03:40:07;10.20;99.90
60723;DHT22;46574;52.818;6.516;2023-04-24T03:42:33;10.30;99.90
60723;DHT22;46574;52.818;6.516;2023-04-24T03:44:59;10.30;99.90
60723;DHT22;46574;52.818;6.516;2023-04-24T03:47:24;10.30;99.90
60723;DHT22;46574;52.818;6.516;2023-04-24T03:49:50;10.30;99.90
60723;DHT22;46574;52.818;6.516;2023-04-24T03:52:16;10.30;99.90
60723;DHT22;46574;52.818;6.516;2023-04-24T03:54:42;10.30;99.90
60723;DHT22;46574;52.818;6.516;2023-04-24T03:57:07;10.20;99.90
60723;DHT22;46574;52.818;6.516;2023-04-24T03:59:33;10.20;99.90
60723;DHT22;46574;52.818;6.516;2023-04-24T04:01:58;10.20;99.90
60723;DHT22;46574;52.818;6.516;2023-04-24T04:04:24;10.20;99.90
60723;DHT22;46574;52.818;6.516;2023-04-24T04:06:50;10.30;99.90
60723;DHT22;46574;52.818;6.516;2023-04-24T04:09:16;10.30;99.90
60723;DHT22;46574;52.818;6.516;2023-04-24T04:11:42;10.20;99.90
60723;DHT22;46574;52.818;6.516;2023-04-24T04:14:07;10.20;99.90
60723;DHT22;46574;52.818;6.516;2023-04-24T04:16:33;10.10;99.90
60723;DHT22;46574;52.818;6.516;2023-04-24T04:18:59;10.20;99.90
60723;DHT22;46574;52.818;6.516;2023-04-24T04:21:24;10.10;99.90
60723;DHT22;46574;52.818;6.516;2023-04-24T04:23:50;10.10;99.90
60723;DHT22;46574;52.818;6.516;2023-04-24T04:26:16;10.10;99.90
60723;DHT22;46574;52.818;6.516;2023-04-24T04:28:41;10.00;99.90
60723;DHT22;46574;52.818;6.516;2023-04-24T04:31:07;10.00;99.90
60723;DHT22;46574;52.818;6.516;2023-04-24T04:33:33;10.10;99.90
60723;DHT22;46574;52.818;6.516;2023-04-24T04:35:59;10.10;99.90
60723;DHT22;46574;52.818;6.516;2023-04-24T04:38:25;10.10;99.90
60723;DHT22;46574;52.818;6.516;2023-04-24T04:40:55;10.10;99.90
60723;DHT22;46574;52.818;6.516;2023-04-24T04:43:25;10.10;99.90
60723;DHT22;46574;52.818;6.516;2023-04-24T04:45:52;10.20;99.90
60723;DHT22;46574;52.818;6.516;2023-04-24T04:48:18;10.20;99.90
60723;DHT22;46574;52.818;6.516;2023-04-24T04:50:44;10.20;99.90
60723;DHT22;46574;52.818;6.516;2023-04-24T04:53:11;10.20;99.90
60723;DHT22;46574;52.818;6.516;2023-04-24T04:55:37;10.10;99.90
60723;DHT22;46574;52.818;6.516;2023-04-24T04:58:03;10.20;99.90
60723;DHT22;46574;52.818;6.516;2023-04-24T05:00:28;10.10;99.90
60723;DHT22;46574;52.818;6.516;2023-04-24T05:02:59;10.10;99.90
60723;DHT22;46574;52.818;6.516;2023-04-24T05:05:25;10.10;99.90
60723;DHT22;46574;52.818;6.516;2023-04-24T05:07:51;10.10;99.90
60723;DHT22;46574;52.818;6.516;2023-04-24T05:10:17;10.10;99.90
60723;DHT22;46574;52.818;6.516;2023-04-24T05:12:42;10.10;99.90
60723;DHT22;46574;52.818;6.516;2023-04-24T05:15:08;10.10;99.90
60723;DHT22;46574;52.818;6.516;2023-04-24T05:17:34;10.00;99.90
60723;DHT22;46574;52.818;6.516;2023-04-24T05:20:00;10.00;99.90
60723;DHT22;46574;52.818;6.516;2023-04-24T05:22:26;10.00;99.90
60723;DHT22;46574;52.818;6.516;2023-04-24T05:24:52;10.10;99.90
60723;DHT22;46574;52.818;6.516;2023-04-24T05:27:18;10.10;99.90
60723;DHT22;46574;52.818;6.516;2023-04-24T05:29:44;10.10;99.90
60723;DHT22;46574;52.818;6.516;2023-04-24T05:32:10;10.10;99.90
60723;DHT22;46574;52.818;6.516;2023-04-24T05:34:36;10.10;99.90
60723;DHT22;46574;52.818;6.516;2023-04-24T05:37:02;10.10;99.90
60723;DHT22;46574;52.818;6.516;2023-04-24T05:39:28;10.10;99.90
60723;DHT22;46574;52.818;6.516;2023-04-24T05:41:54;10.10;99.90
60723;DHT22;46574;52.818;6.516;2023-04-24T05:44:20;10.10;99.90
60723;DHT22;46574;52.818;6.516;2023-04-24T05:46:46;10.20;99.90
60723;DHT22;46574;52.818;6.516;2023-04-24T05:49:11;10.20;99.90
60723;DHT22;46574;52.818;6.516;2023-04-24T05:51:37;10.20;99.90
60723;DHT22;46574;52.818;6.516;2023-04-24T05:54:04;10.20;99.90
60723;DHT22;46574;52.818;6.516;2023-04-24T05:56:30;10.20;99.90
60723;DHT22;46574;52.818;6.516;2023-04-24T05:58:56;10.30;99.90
60723;DHT22;46574;52.818;6.516;2023-04-24T06:01:21;10.30;99.90
60723;DHT22;46574;52.818;6.516;2023-04-24T06:03:48;10.30;99.90
60723;DHT22;46574;52.818;6.516;2023-04-24T06:06:13;10.30;99.90
60723;DHT22;46574;52.818;6.516;2023-04-24T06:08:39;10.30;99.90
60723;DHT22;46574;52.818;6.516;2023-04-24T06:11:05;10.30;99.90
60723;DHT22;46574;52.818;6.516;2023-04-24T06:13:30;10.30;99.90
60723;DHT22;46574;52.818;6.516;2023-04-24T06:15:56;10.40;99.90
60723;DHT22;46574;52.818;6.516;2023-04-24T06:18:21;10.40;99.90
60723;DHT22;46574;52.818;6.516;2023-04-24T06:20:47;10.50;99.90
60723;DHT22;46574;52.818;6.516;2023-04-24T06:23:13;10.50;99.90
60723;DHT22;46574;52.818;6.516;2023-04-24T06:25:38;10.40;99.90
60723;DHT22;46574;52.818;6.516;2023-04-24T06:28:04;10.50;99.90
60723;DHT22;46574;52.818;6.516;2023-04-24T06:30:31;10.50;99.90
60723;DHT22;46574;52.818;6.516;2023-04-24T06:32:56;10.40;99.90
60723;DHT22;46574;52.818;6.516;2023-04-24T06:35:23;10.40;99.90
60723;DHT22;46574;52.818;6.516;2023-04-24T06:37:48;10.40;99.90
60723;DHT22;46574;52.818;6.516;2023-04-24T06:40:14;10.40;99.90
60723;DHT22;46574;52.818;6.516;2023-04-24T06:42:43;10.30;99.90
60723;DHT22;46574;52.818;6.516;2023-04-24T06:45:09;10.30;99.90
60723;DHT22;46574;52.818;6.516;2023-04-24T06:47:35;10.30;99.90
60723;DHT22;46574;52.818;6.516;2023-04-24T06:50:01;10.30;99.90
60723;DHT22;46574;52.818;6.516;2023-04-24T06:52:26;10.20;99.90
60723;DHT22;46574;52.818;6.516;2023-04-24T06:54:52;10.30;99.90
60723;DHT22;46574;52.818;6.516;2023-04-24T06:57:18;10.30;99.90
60723;DHT22;46574;52.818;6.516;2023-04-24T06:59:43;10.30;99.90
60723;DHT22;46574;52.818;6.516;2023-04-24T07:02:09;10.30;99.90
60723;DHT22;46574;52.818;6.516;2023-04-24T07:04:35;10.30;99.90
60723;DHT22;46574;52.818;6.516;2023-04-24T07:07:00;10.30;99.90
60723;DHT22;46574;52.818;6.516;2023-04-24T07:09:26;10.30;99.90
60723;DHT22;46574;52.818;6.516;2023-04-24T07:11:52;10.30;99.90
60723;DHT22;46574;52.818;6.516;2023-04-24T07:14:19;10.30;99.90
60723;DHT22;46574;52.818;6.516;2023-04-24T07:16:44;10.20;99.90
60723;DHT22;46574;52.818;6.516;2023-04-24T07:19:11;10.30;99.90
60723;DHT22;46574;52.818;6.516;2023-04-24T07:21:37;10.30;99.90
60723;DHT22;46574;52.818;6.516;2023-04-24T07:24:02;10.20;99.90
60723;DHT22;46574;52.818;6.516;2023-04-24T07:26:29;10.20;99.90
60723;DHT22;46574;52.818;6.516;2023-04-24T07:28:55;10.20;99.90
60723;DHT22;46574;52.818;6.516;2023-04-24T07:31:20;10.20;99.90
60723;DHT22;46574;52.818;6.516;2023-04-24T07:33:47;10.20;99.90
60723;DHT22;46574;52.818;6.516;2023-04-24T07:36:13;10.10;99.90
60723;DHT22;46574;52.818;6.516;2023-04-24T07:38:44;10.20;99.90
60723;DHT22;46574;52.818;6.516;2023-04-24T07:41:10;10.10;99.90
60723;DHT22;46574;52.818;6.516;2023-04-24T07:43:36;10.10;99.90
60723;DHT22;46574;52.818;6.516;2023-04-24T07:46:01;10.10;99.90
60723;DHT22;46574;52.818;6.516;2023-04-24T07:48:27;10.10;99.90
60723;DHT22;46574;52.818;6.516;2023-04-24T07:50:53;10.10;99.90
60723;DHT22;46574;52.818;6.516;2023-04-24T07:53:19;10.10;99.90
60723;DHT22;46574;52.818;6.516;2023-04-24T07:55:45;10.00;99.90
60723;DHT22;46574;52.818;6.516;2023-04-24T07:58:11;10.00;99.90
60723;DHT22;46574;52.818;6.516;2023-04-24T08:00:37;9.90;99.90
60723;DHT22;46574;52.818;6.516;2023-04-24T08:03:02;10.00;99.90
60723;DHT22;46574;52.818;6.516;2023-04-24T08:05:28;9.90;99.90
60723;DHT22;46574;52.818;6.516;2023-04-24T08:07:54;10.00;99.90
60723;DHT22;46574;52.818;6.516;2023-04-24T08:10:23;10.00;99.90
60723;DHT22;46574;52.818;6.516;2023-04-24T08:12:49;10.00;99.90
60723;DHT22;46574;52.818;6.516;2023-04-24T08:15:15;10.10;99.90
60723;DHT22;46574;52.818;6.516;2023-04-24T08:17:40;10.00;99.90
60723;DHT22;46574;52.818;6.516;2023-04-24T08:20:08;10.10;99.90
60723;DHT22;46574;52.818;6.516;2023-04-24T08:22:42;10.00;99.90
60723;DHT22;46574;52.818;6.516;2023-04-24T08:25:11;10.00;99.90
60723;DHT22;46574;52.818;6.516;2023-04-24T08:27:36;10.00;99.90
60723;DHT22;46574;52.818;6.516;2023-04-24T08:30:03;9.90;99.90
60723;DHT22;46574;52.818;6.516;2023-04-24T08:32:29;9.90;99.90
60723;DHT22;46574;52.818;6.516;2023-04-24T08:34:56;9.80;99.90
60723;DHT22;46574;52.818;6.516;2023-04-24T08:37:22;9.90;99.90
60723;DHT22;46574;52.818;6.516;2023-04-24T08:39:49;9.80;99.90
60723;DHT22;46574;52.818;6.516;2023-04-24T08:42:16;9.70;99.90
60723;DHT22;46574;52.818;6.516;2023-04-24T08:44:43;9.70;99.90
60723;DHT22;46574;52.818;6.516;2023-04-24T08:47:10;9.70;99.90
60723;DHT22;46574;52.818;6.516;2023-04-24T08:49:37;9.70;99.90
60723;DHT22;46574;52.818;6.516;2023-04-24T08:52:03;9.70;99.90
60723;DHT22;46574;52.818;6.516;2023-04-24T08:54:31;9.60;99.90
60723;DHT22;46574;52.818;6.516;2023-04-24T08:57:00;9.50;99.90
60723;DHT22;46574;52.818;6.516;2023-04-24T08:59:32;9.50;99.90
60723;DHT22;46574;52.818;6.516;2023-04-24T09:01:59;9.40;99.90
60723;DHT22;46574;52.818;6.516;2023-04-24T09:04:25;9.40;99.90
60723;DHT22;46574;52.818;6.516;2023-04-24T09:06:56;9.30;99.90
60723;DHT22;46574;52.818;6.516;2023-04-24T09:09:23;9.40;99.90
60723;DHT22;46574;52.818;6.516;2023-04-24T09:11:50;9.30;99.90
60723;DHT22;46574;52.818;6.516;2023-04-24T09:14:16;9.20;99.90
60723;DHT22;46574;52.818;6.516;2023-04-24T09:16:42;9.20;99.90
60723;DHT22;46574;52.818;6.516;2023-04-24T09:19:08;9.30;99.90
60723;DHT22;46574;52.818;6.516;2023-04-24T09:21:34;9.40;99.90
60723;DHT22;46574;52.818;6.516;2023-04-24T09:24:06;9.30;99.90
60723;DHT22;46574;52.818;6.516;2023-04-24T09:26:35;9.30;99.90
60723;DHT22;46574;52.818;6.516;2023-04-24T09:29:01;9.40;99.90
60723;DHT22;46574;52.818;6.516;2023-04-24T09:31:29;9.40;99.90
60723;DHT22;46574;52.818;6.516;2023-04-24T09:34:00;9.50;99.90
60723;DHT22;46574;52.818;6.516;2023-04-24T09:36:31;9.50;99.90
60723;DHT22;46574;52.818;6.516;2023-04-24T09:39:03;9.40;99.90
60723;DHT22;46574;52.818;6.516;2023-04-24T09:41:29;9.40;99.90
60723;DHT22;46574;52.818;6.516;2023-04-24T09:43:56;9.50;99.90
60723;DHT22;46574;52.818;6.516;2023-04-24T09:46:30;9.50;99.90
60723;DHT22;46574;52.818;6.516;2023-04-24T09:48:57;9.50;99.90
60723;DHT22;46574;52.818;6.516;2023-04-24T09:51:36;9.40;99.90
60723;DHT22;46574;52.818;6.516;2023-04-24T09:54:04;9.40;99.90
60723;DHT22;46574;52.818;6.516;2023-04-24T09:56:33;9.40;99.90
60723;DHT22;46574;52.818;6.516;2023-04-24T09:59:06;9.40;99.90
60723;DHT22;46574;52.818;6.516;2023-04-24T10:01:33;9.40;99.90
60723;DHT22;46574;52.818;6.516;2023-04-24T10:03:59;9.40;99.90
60723;DHT22;46574;52.818;6.516;2023-04-24T10:06:34;9.50;99.90
60723;DHT22;46574;52.818;6.516;2023-04-24T10:09:01;9.60;99.90
60723;DHT22;46574;52.818;6.516;2023-04-24T10:11:27;9.60;99.90
60723;DHT22;46574;52.818;6.516;2023-04-24T10:13:53;9.70;99.90
60723;DHT22;46574;52.818;6.516;2023-04-24T10:16:21;9.70;99.90
60723;DHT22;46574;52.818;6.516;2023-04-24T10:18:48;9.70;99.90
60723;DHT22;46574;52.818;6.516;2023-04-24T10:21:15;9.60;99.90
60723;DHT22;46574;52.818;6.516;2023-04-24T10:23:42;9.60;99.90
60723;DHT22;46574;52.818;6.516;2023-04-24T10:26:09;9.60;99.90
60723;DHT22;46574;52.818;6.516;2023-04-24T10:28:36;9.50;99.90
60723;DHT22;46574;52.818;6.516;2023-04-24T10:31:02;9.50;99.90
60723;DHT22;46574;52.818;6.516;2023-04-24T10:33:29;9.40;99.90
60723;DHT22;46574;52.818;6.516;2023-04-24T10:35:56;9.30;99.90
60723;DHT22;46574;52.818;6.516;2023-04-24T10:38:25;9.30;99.90
60723;DHT22;46574;52.818;6.516;2023-04-24T10:40:57;9.30;99.90
60723;DHT22;46574;52.818;6.516;2023-04-24T10:43:33;9.30;99.90
60723;DHT22;46574;52.818;6.516;2023-04-24T10:46:03;9.40;99.90
60723;DHT22;46574;52.818;6.516;2023-04-24T10:48:29;9.40;99.90
60723;DHT22;46574;52.818;6.516;2023-04-24T10:50:55;9.30;99.90
60723;DHT22;46574;52.818;6.516;2023-04-24T10:53:28;9.40;99.90
60723;DHT22;46574;52.818;6.516;2023-04-24T10:58:24;9.40;99.90
60723;DHT22;46574;52.818;6.516;2023-04-24T11:01:01;9.50;99.90
60723;DHT22;46574;52.818;6.516;2023-04-24T11:03:31;9.70;99.90
60723;DHT22;46574;52.818;6.516;2023-04-24T11:06:07;9.70;99.90
60723;DHT22;46574;52.818;6.516;2023-04-24T11:11:12;9.80;99.90
60723;DHT22;46574;52.818;6.516;2023-04-24T11:16:27;9.60;99.90
60723;DHT22;46574;52.818;6.516;2023-04-24T11:19:09;9.50;99.90
60723;DHT22;46574;52.818;6.516;2023-04-24T11:21:43;9.50;99.90
60723;DHT22;46574;52.818;6.516;2023-04-24T11:27:39;9.60;99.90
60723;DHT22;46574;52.818;6.516;2023-04-24T11:32:34;9.60;99.90
60723;DHT22;46574;52.818;6.516;2023-04-24T11:37:51;9.80;99.90
60723;DHT22;46574;52.818;6.516;2023-04-24T11:40:19;9.90;99.90
60723;DHT22;46574;52.818;6.516;2023-04-24T11:42:46;10.00;99.90
60723;DHT22;46574;52.818;6.516;2023-04-24T11:45:32;10.00;99.90
60723;DHT22;46574;52.818;6.516;2023-04-24T11:47:58;10.10;99.90
60723;DHT22;46574;52.818;6.516;2023-04-24T11:50:25;10.20;99.90
60723;DHT22;46574;52.818;6.516;2023-04-24T11:52:52;10.10;99.90
60723;DHT22;46574;52.818;6.516;2023-04-24T11:57:49;10.00;99.90
60723;DHT22;46574;52.818;6.516;2023-04-24T12:02:46;9.70;99.90
60723;DHT22;46574;52.818;6.516;2023-04-24T12:05:26;9.70;99.90
60723;DHT22;46574;52.818;6.516;2023-04-24T12:07:53;9.80;99.90
60723;DHT22;46574;52.818;6.516;2023-04-24T12:10:23;9.80;99.90
60723;DHT22;46574;52.818;6.516;2023-04-24T12:12:49;9.80;99.90
60723;DHT22;46574;52.818;6.516;2023-04-24T12:15:18;9.80;99.90
60723;DHT22;46574;52.818;6.516;2023-04-24T12:17:44;9.80;99.90
60723;DHT22;46574;52.818;6.516;2023-04-24T12:20:10;9.80;99.90
60723;DHT22;46574;52.818;6.516;2023-04-24T12:23:04;9.80;99.90
60723;DHT22;46574;52.818;6.516;2023-04-24T12:25:31;9.80;99.90
60723;DHT22;46574;52.818;6.516;2023-04-24T12:30:29;9.90;99.90
60723;DHT22;46574;52.818;6.516;2023-04-24T12:32:57;9.90;99.90
60723;DHT22;46574;52.818;6.516;2023-04-24T12:35:25;9.90;99.90
60723;DHT22;46574;52.818;6.516;2023-04-24T12:37:51;9.80;99.90
60723;DHT22;46574;52.818;6.516;2023-04-24T12:40:20;9.80;99.90
60723;DHT22;46574;52.818;6.516;2023-04-24T12:42:50;9.60;99.90
60723;DHT22;46574;52.818;6.516;2023-04-24T12:45:18;9.70;99.90
60723;DHT22;46574;52.818;6.516;2023-04-24T12:47:45;9.80;99.90
60723;DHT22;46574;52.818;6.516;2023-04-24T12:50:12;10.00;99.90
60723;DHT22;46574;52.818;6.516;2023-04-24T12:52:38;10.10;99.90
60723;DHT22;46574;52.818;6.516;2023-04-24T12:55:05;10.20;99.90
60723;DHT22;46574;52.818;6.516;2023-04-24T12:57:33;10.10;99.90
60723;DHT22;46574;52.818;6.516;2023-04-24T13:00:00;10.20;99.90
60723;DHT22;46574;52.818;6.516;2023-04-24T13:02:28;10.10;99.90
60723;DHT22;46574;52.818;6.516;2023-04-24T13:04:54;10.00;99.90
60723;DHT22;46574;52.818;6.516;2023-04-24T13:07:20;9.90;99.90
60723;DHT22;46574;52.818;6.516;2023-04-24T13:09:48;9.80;99.90
60723;DHT22;46574;52.818;6.516;2023-04-24T13:12:14;9.70;99.90
60723;DHT22;46574;52.818;6.516;2023-04-24T13:14:40;9.60;99.90
60723;DHT22;46574;52.818;6.516;2023-04-24T13:17:06;9.50;99.90
60723;DHT22;46574;52.818;6.516;2023-04-24T13:19:40;9.60;99.90
60723;DHT22;46574;52.818;6.516;2023-04-24T13:22:09;9.70;99.90
60723;DHT22;46574;52.818;6.516;2023-04-24T13:24:35;9.80;99.90
60723;DHT22;46574;52.818;6.516;2023-04-24T13:27:01;10.00;99.90
60723;DHT22;46574;52.818;6.516;2023-04-24T13:29:28;10.00;99.90
60723;DHT22;46574;52.818;6.516;2023-04-24T13:31:54;10.00;99.90
60723;DHT22;46574;52.818;6.516;2023-04-24T13:34:21;10.00;99.90
60723;DHT22;46574;52.818;6.516;2023-04-24T13:36:47;10.00;99.90
60723;DHT22;46574;52.818;6.516;2023-04-24T13:39:12;9.90;99.90
60723;DHT22;46574;52.818;6.516;2023-04-24T13:41:38;9.90;99.90
60723;DHT22;46574;52.818;6.516;2023-04-24T13:44:06;9.80;99.90
60723;DHT22;46574;52.818;6.516;2023-04-24T13:46:32;9.80;99.90
60723;DHT22;46574;52.818;6.516;2023-04-24T13:48:58;9.70;99.90
60723;DHT22;46574;52.818;6.516;2023-04-24T13:51:25;9.70;99.90
60723;DHT22;46574;52.818;6.516;2023-04-24T13:53:53;9.60;99.90
60723;DHT22;46574;52.818;6.516;2023-04-24T13:56:18;9.50;99.90
60723;DHT22;46574;52.818;6.516;2023-04-24T13:58:44;9.30;99.90
60723;DHT22;46574;52.818;6.516;2023-04-24T14:01:10;9.20;99.90
60723;DHT22;46574;52.818;6.516;2023-04-24T14:03:37;9.10;99.90
60723;DHT22;46574;52.818;6.516;2023-04-24T14:06:03;9.10;99.90
60723;DHT22;46574;52.818;6.516;2023-04-24T14:08:28;9.10;99.90
60723;DHT22;46574;52.818;6.516;2023-04-24T14:10:54;9.20;99.90
60723;DHT22;46574;52.818;6.516;2023-04-24T14:13:20;9.30;99.90
60723;DHT22;46574;52.818;6.516;2023-04-24T14:15:46;9.30;99.90
60723;DHT22;46574;52.818;6.516;2023-04-24T14:18:12;9.40;99.90
60723;DHT22;46574;52.818;6.516;2023-04-24T14:20:37;9.50;99.90
60723;DHT22;46574;52.818;6.516;2023-04-24T14:23:03;9.50;99.90
60723;DHT22;46574;52.818;6.516;2023-04-24T14:25:30;9.60;99.90
60723;DHT22;46574;52.818;6.516;2023-04-24T14:27:55;9.60;99.90
60723;DHT22;46574;52.818;6.516;2023-04-24T14:30:21;9.70;99.90
60723;DHT22;46574;52.818;6.516;2023-04-24T14:32:47;9.70;99.90
60723;DHT22;46574;52.818;6.516;2023-04-24T14:35:13;9.80;99.90
60723;DHT22;46574;52.818;6.516;2023-04-24T14:37:40;9.80;99.90
60723;DHT22;46574;52.818;6.516;2023-04-24T14:40:07;9.70;99.90
60723;DHT22;46574;52.818;6.516;2023-04-24T14:42:33;9.70;99.90
60723;DHT22;46574;52.818;6.516;2023-04-24T14:44:59;9.70;99.90
60723;DHT22;46574;52.818;6.516;2023-04-24T14:47:25;9.80;99.90
60723;DHT22;46574;52.818;6.516;2023-04-24T14:49:51;9.80;99.90
60723;DHT22;46574;52.818;6.516;2023-04-24T14:52:17;9.70;99.90
60723;DHT22;46574;52.818;6.516;2023-04-24T14:54:43;9.70;99.90
60723;DHT22;46574;52.818;6.516;2023-04-24T14:57:09;9.70;99.90
60723;DHT22;46574;52.818;6.516;2023-04-24T14:59:35;9.80;99.90
60723;DHT22;46574;52.818;6.516;2023-04-24T15:02:01;9.90;99.90
60723;DHT22;46574;52.818;6.516;2023-04-24T15:04:28;9.90;99.90
60723;DHT22;46574;52.818;6.516;2023-04-24T15:06:54;10.00;99.90
60723;DHT22;46574;52.818;6.516;2023-04-24T15:09:21;10.10;99.90
60723;DHT22;46574;52.818;6.516;2023-04-24T15:11:47;10.20;99.90
60723;DHT22;46574;52.818;6.516;2023-04-24T15:14:13;10.20;99.90
60723;DHT22;46574;52.818;6.516;2023-04-24T15:16:38;10.10;99.90
60723;DHT22;46574;52.818;6.516;2023-04-24T15:19:04;10.10;99.90
60723;DHT22;46574;52.818;6.516;2023-04-24T15:21:29;10.20;99.90
60723;DHT22;46574;52.818;6.516;2023-04-24T15:23:56;10.20;99.90
60723;DHT22;46574;52.818;6.516;2023-04-24T15:26:23;10.50;99.90
60723;DHT22;46574;52.818;6.516;2023-04-24T15:28:49;10.60;99.90
60723;DHT22;46574;52.818;6.516;2023-04-24T15:31:14;10.40;99.90
60723;DHT22;46574;52.818;6.516;2023-04-24T15:33:40;10.40;99.90
60723;DHT22;46574;52.818;6.516;2023-04-24T15:36:06;10.20;99.90
60723;DHT22;46574;52.818;6.516;2023-04-24T15:38:32;10.10;99.90
60723;DHT22;46574;52.818;6.516;2023-04-24T15:40:57;9.80;99.90
60723;DHT22;46574;52.818;6.516;2023-04-24T15:43:23;9.60;99.90
60723;DHT22;46574;52.818;6.516;2023-04-24T15:45:49;9.40;99.90
60723;DHT22;46574;52.818;6.516;2023-04-24T15:48:15;9.30;99.90
60723;DHT22;46574;52.818;6.516;2023-04-24T15:50:41;9.40;99.90
60723;DHT22;46574;52.818;6.516;2023-04-24T15:53:07;9.30;99.90
60723;DHT22;46574;52.818;6.516;2023-04-24T15:55:33;9.40;99.90
60723;DHT22;46574;52.818;6.516;2023-04-24T15:57:59;9.60;99.90